Terminal Aerodrome Forecast
Issued by NWS

Home | Current Version | Previous Version | Text Only | Print | Product List | Glossary On
Versions: 1 2 3 4 5 6 7 8 9 10 11 12 13 14 15 16 17 18 19 20
000
FTUS44 KLZK 142300
TAFHOT
TAF
KHOT 142336Z 1500/1524 08005KT P6SM SCT150
     FM150400 16004KT P6SM BKN120
     FM150800 16004KT P6SM VCSH OVC080
     FM151700 20005KT P6SM BKN040 OVC080=

USA.gov is the U.S. government's official web portal to all federal, state and local government web resources and services.